Time;durP1;ratioP1;P1;durP2;ratioP2;P2;SDS_P1;SDS_P2;PMS_P1;PMS_P2;Temp;Humidity;BMP_temperature;BMP_pressure;BME280_temperature;BME280_humidity;BME280_pressure;Samples;Min_cycle;Max_cycle;Signal;HPM_P1;HPM_P2
2022/10/24 00:01:23;;;;;;;10.38;2.25;;;;;;;;;;5089336;28;20040;-83
2022/10/24 00:03:49;;;;;;;11.00;2.08;;;;;;;;;;5077101;28;20044;-83
2022/10/24 00:06:15;;;;;;;15.77;2.05;;;;;;;;;;5060441;28;20082;-85
2022/10/24 00:08:42;;;;;;;13.75;2.90;;;;;;;;;;5078439;28;20033;-83
2022/10/24 00:11:13;;;;;;;13.65;1.98;;;;;;;;;;5076753;28;20044;-84
2022/10/24 00:13:39;;;;;;;8.95;2.25;;;;;;;;;;5060311;28;20040;-83
2022/10/24 00:16:05;;;;;;;17.73;2.45;;;;;;;;;;5078237;28;20094;-83
2022/10/24 00:18:30;;;;;;;9.43;2.13;;;;;;;;;;5078669;28;20033;-85
2022/10/24 00:20:56;;;;;;;11.15;2.33;;;;;;;;;;5060060;28;20035;-84
2022/10/24 00:23:21;;;;;;;11.27;3.00;;;;;;;;;;5061136;28;20036;-83
2022/10/24 00:25:47;;;;;;;13.48;2.88;;;;;;;;;;5061227;28;20032;-84
2022/10/24 00:28:12;;;;;;;10.80;2.20;;;;;;;;;;5062064;28;20033;-84
2022/10/24 00:30:38;;;;;;;12.57;2.15;;;;;;;;;;5061240;28;20119;-84
2022/10/24 00:33:03;;;;;;;11.65;2.35;;;;;;;;;;5079325;28;20032;-85
2022/10/24 00:35:29;;;;;;;8.77;2.28;;;;;;;;;;5078990;28;20397;-85
2022/10/24 00:37:54;;;;;;;10.95;2.55;;;;;;;;;;5080167;28;20085;-84
2022/10/24 00:40:20;;;;;;;13.50;2.60;;;;;;;;;;5079971;28;20134;-83
2022/10/24 00:42:47;;;;;;;17.13;2.83;;;;;;;;;;5062141;28;20032;-83
2022/10/24 00:45:42;;;;;;;10.38;2.15;;;;;;;;;;5062241;28;20047;-84
2022/10/24 00:48:14;;;;;;;9.65;2.35;;;;;;;;;;5062478;28;20033;-85
2022/10/24 00:50:39;;;;;;;10.57;1.90;;;;;;;;;;5058332;28;20151;-85
2022/10/24 00:53:05;;;;;;;8.73;2.40;;;;;;;;;;5057552;28;20072;-84
2022/10/24 00:55:31;;;;;;;12.85;2.25;;;;;;;;;;5075979;28;20028;-83
2022/10/24 00:58:00;;;;;;;8.98;2.47;;;;;;;;;;5057170;28;20067;-84
2022/10/24 01:00:29;;;;;;;12.88;2.13;;;;;;;;;;5076210;28;20081;-85
2022/10/24 01:02:55;;;;;;;11.73;2.00;;;;;;;;;;5075409;28;20040;-83
2022/10/24 01:05:22;;;;;;;10.45;2.88;;;;;;;;;;5041172;28;20404;-84
2022/10/24 01:08:07;;;;;;;9.30;2.20;;;;;;;;;;5075948;28;20120;-85
2022/10/24 01:10:32;;;;;;;14.18;2.08;;;;;;;;;;5074526;28;20085;-85
2022/10/24 01:13:12;;;;;;;13.40;1.95;;;;;;;;;;5075696;28;20036;-84
2022/10/24 01:15:54;;;;;;;9.00;2.53;;;;;;;;;;5075824;28;20033;-83
2022/10/24 01:18:27;;;;;;;6.35;2.15;;;;;;;;;;5074765;28;20040;-84
2022/10/24 01:21:01;;;;;;;12.23;2.30;;;;;;;;;;5076675;28;20033;-84
2022/10/24 01:23:38;;;;;;;5.88;1.67;;;;;;;;;;5076787;28;20036;-85
2022/10/24 01:26:32;;;;;;;10.30;2.20;;;;;;;;;;5041634;28;20465;-84
2022/10/24 01:29:17;;;;;;;13.43;2.20;;;;;;;;;;5077436;28;20078;-84
2022/10/24 01:32:08;;;;;;;7.15;2.05;;;;;;;;;;5075219;28;20040;-84
2022/10/24 01:34:39;;;;;;;8.85;1.92;;;;;;;;;;5076607;28;20104;-84
2022/10/24 01:37:17;;;;;;;9.55;2.20;;;;;;;;;;5077229;28;20045;-84
2022/10/24 01:39:47;;;;;;;11.85;2.25;;;;;;;;;;5042103;28;20032;-85
2022/10/24 01:42:15;;;;;;;5.85;1.77;;;;;;;;;;5059148;28;20056;-85
2022/10/24 01:44:44;;;;;;;10.35;1.95;;;;;;;;;;5077235;28;20024;-84
2022/10/24 01:47:20;;;;;;;12.38;1.88;;;;;;;;;;5076395;28;20055;-84
2022/10/24 01:49:52;;;;;;;6.25;1.77;;;;;;;;;;5059199;28;20420;-83
2022/10/24 01:52:19;;;;;;;12.02;2.33;;;;;;;;;;5060324;28;20039;-85
2022/10/24 01:54:46;;;;;;;7.88;1.90;;;;;;;;;;5078499;28;20029;-84
2022/10/24 01:57:13;;;;;;;10.70;1.98;;;;;;;;;;5060111;28;20068;-85
2022/10/24 01:59:47;;;;;;;10.20;1.90;;;;;;;;;;5078776;28;20550;-85
2022/10/24 02:02:18;;;;;;;6.28;2.00;;;;;;;;;;5077266;28;20032;-86
2022/10/24 02:04:54;;;;;;;8.38;1.88;;;;;;;;;;5078658;28;20035;-85
2022/10/24 02:07:21;;;;;;;9.07;2.00;;;;;;;;;;5061319;28;20464;-86
2022/10/24 02:09:52;;;;;;;7.82;1.80;;;;;;;;;;5061446;28;20036;-85
2022/10/24 02:12:21;;;;;;;12.20;2.10;;;;;;;;;;5060580;28;20032;-84
2022/10/24 02:14:52;;;;;;;6.63;1.88;;;;;;;;;;5079135;28;20042;-85
2022/10/24 02:17:18;;;;;;;7.03;1.73;;;;;;;;;;5061663;28;20051;-86
2022/10/24 02:19:45;;;;;;;6.97;1.80;;;;;;;;;;5080077;28;20037;-86
2022/10/24 02:22:23;;;;;;;9.25;2.05;;;;;;;;;;5078217;28;20040;-85
2022/10/24 02:25:11;;;;;;;9.05;1.65;;;;;;;;;;5079842;28;20037;-85
2022/10/24 02:27:47;;;;;;;9.02;2.08;;;;;;;;;;5090797;28;20040;-84
2022/10/24 02:30:20;;;;;;;8.40;2.17;;;;;;;;;;5058494;28;20044;-86
2022/10/24 02:32:52;;;;;;;7.55;2.22;;;;;;;;;;5077275;28;20120;-84
2022/10/24 02:35:22;;;;;;;12.10;1.83;;;;;;;;;;5058567;28;20555;-84
2022/10/24 02:37:54;;;;;;;9.98;1.90;;;;;;;;;;5059184;28;20271;-84
2022/10/24 02:40:21;;;;;;;11.70;1.73;;;;;;;;;;5058978;28;20036;-83
2022/10/24 02:42:49;;;;;;;10.43;1.92;;;;;;;;;;5076866;28;20045;-84
2022/10/24 02:45:16;;;;;;;7.45;1.80;;;;;;;;;;5061109;28;20116;-85
2022/10/24 02:47:43;;;;;;;9.30;1.65;;;;;;;;;;5045519;28;20047;-85
2022/10/24 02:50:10;;;;;;;6.40;1.90;;;;;;;;;;5062993;28;20036;-83
2022/10/24 02:52:37;;;;;;;8.27;1.80;;;;;;;;;;5063795;28;20040;-85
2022/10/24 02:55:03;;;;;;;12.27;2.15;;;;;;;;;;5081020;28;20166;-84
2022/10/24 02:57:29;;;;;;;9.10;1.85;;;;;;;;;;5063539;28;20036;-86
2022/10/24 02:59:54;;;;;;;11.50;1.95;;;;;;;;;;5081348;28;20104;-84
2022/10/24 03:02:21;;;;;;;11.45;1.75;;;;;;;;;;5046272;28;20037;-84
2022/10/24 03:04:47;;;;;;;6.63;1.50;;;;;;;;;;5046729;28;20439;-85
2022/10/24 03:07:12;;;;;;;8.57;2.00;;;;;;;;;;5063712;28;20037;-86
2022/10/24 03:09:38;;;;;;;5.22;1.67;;;;;;;;;;5082556;28;20040;-86
2022/10/24 03:12:04;;;;;;;9.70;1.80;;;;;;;;;;5082123;28;20037;-85
2022/10/24 03:14:29;;;;;;;8.35;1.90;;;;;;;;;;5076309;28;20032;-86
2022/10/24 03:16:55;;;;;;;6.40;1.50;;;;;;;;;;5076691;28;20047;-85
2022/10/24 03:19:20;;;;;;;9.50;1.70;;;;;;;;;;5077665;28;20016;-84
2022/10/24 03:21:46;;;;;;;9.23;1.92;;;;;;;;;;5077600;28;20063;-83
2022/10/24 03:24:11;;;;;;;11.13;1.80;;;;;;;;;;5058795;28;20052;-85
2022/10/24 03:26:37;;;;;;;13.57;2.00;;;;;;;;;;5077803;28;20068;-86
2022/10/24 03:29:02;;;;;;;6.18;1.50;;;;;;;;;;5077474;28;20504;-84
2022/10/24 03:31:30;;;;;;;4.80;1.70;;;;;;;;;;5058843;28;20043;-85
2022/10/24 03:33:56;;;;;;;5.30;1.50;;;;;;;;;;5059572;28;20040;-84
2022/10/24 03:36:22;;;;;;;10.70;2.00;;;;;;;;;;5077616;28;20036;-86
2022/10/24 03:38:47;;;;;;;9.50;2.28;;;;;;;;;;5059857;28;20039;-85
2022/10/24 03:41:13;;;;;;;7.50;2.25;;;;;;;;;;5059525;28;20469;-86
2022/10/24 03:43:38;;;;;;;7.55;1.63;;;;;;;;;;5059979;28;20120;-84
2022/10/24 03:46:04;;;;;;;7.53;1.88;;;;;;;;;;5077632;28;20028;-85
2022/10/24 03:48:30;;;;;;;7.53;1.90;;;;;;;;;;5078237;28;20036;-85
2022/10/24 03:50:55;;;;;;;13.20;2.28;;;;;;;;;;5059528;28;20526;-87
2022/10/24 03:53:21;;;;;;;10.93;2.05;;;;;;;;;;5059869;28;20074;-85
2022/10/24 03:55:46;;;;;;;7.93;1.70;;;;;;;;;;5077298;28;20032;-84
2022/10/24 03:58:12;;;;;;;12.00;2.00;;;;;;;;;;5078477;28;20063;-86
2022/10/24 04:00:39;;;;;;;16.42;1.90;;;;;;;;;;5078373;28;20067;-85
2022/10/24 04:03:06;;;;;;;9.75;2.00;;;;;;;;;;5078799;28;20409;-86
2022/10/24 04:05:32;;;;;;;12.55;2.17;;;;;;;;;;5079064;28;20039;-86
2022/10/24 04:07:58;;;;;;;9.27;2.30;;;;;;;;;;5080214;28;20109;-87
2022/10/24 04:10:23;;;;;;;12.73;3.20;;;;;;;;;;5080547;28;20444;-87
2022/10/24 04:12:49;;;;;;;5.82;2.08;;;;;;;;;;5079825;28;20035;-86
2022/10/24 04:15:14;;;;;;;7.07;1.88;;;;;;;;;;5061123;28;20085;-86
2022/10/24 04:17:41;;;;;;;5.93;1.90;;;;;;;;;;5090967;22;20051;-87
2022/10/24 04:20:07;;;;;;;10.05;2.03;;;;;;;;;;5101685;28;20050;-87
2022/10/24 04:22:33;;;;;;;9.45;2.15;;;;;;;;;;5100903;28;20028;-86
2022/10/24 04:24:58;;;;;;;6.95;2.00;;;;;;;;;;5100909;28;20381;-87
2022/10/24 04:27:24;;;;;;;6.85;2.00;;;;;;;;;;5100947;28;20448;-86
2022/10/24 04:29:49;;;;;;;7.78;2.05;;;;;;;;;;5101698;28;20578;-86
2022/10/24 04:32:15;;;;;;;10.80;4.60;;;;;;;;;;5100922;28;20023;-86
2022/10/24 04:34:40;;;;;;;14.50;4.40;;;;;;;;;;5099281;28;20070;-86
2022/10/24 04:37:06;;;;;;;16.95;3.80;;;;;;;;;;5101183;28;20397;-86
2022/10/24 04:39:31;;;;;;;9.32;4.50;;;;;;;;;;5100786;28;20036;-86
2022/10/24 04:41:57;;;;;;;11.68;3.97;;;;;;;;;;5100737;28;20043;-84
2022/10/24 04:44:22;;;;;;;13.32;4.40;;;;;;;;;;5100198;28;20060;-86
2022/10/24 04:46:49;;;;;;;10.55;2.70;;;;;;;;;;5099745;28;20403;-86
2022/10/24 04:49:14;;;;;;;6.97;2.17;;;;;;;;;;5100247;28;20093;-86
2022/10/24 04:51:40;;;;;;;7.88;2.35;;;;;;;;;;5100488;28;20032;-86
2022/10/24 04:54:06;;;;;;;5.90;1.90;;;;;;;;;;5099812;28;20040;-87
2022/10/24 04:56:32;;;;;;;12.02;2.17;;;;;;;;;;5099800;28;20142;-86
2022/10/24 04:58:57;;;;;;;5.63;1.85;;;;;;;;;;5099684;28;20060;-84
2022/10/24 05:01:23;;;;;;;12.35;3.03;;;;;;;;;;5099877;28;20085;-86
2022/10/24 05:03:48;;;;;;;9.90;2.40;;;;;;;;;;5099296;28;20047;-86
2022/10/24 05:06:14;;;;;;;7.75;2.22;;;;;;;;;;5099890;28;20092;-86
2022/10/24 05:08:39;;;;;;;8.25;2.03;;;;;;;;;;5081151;28;20028;-86
2022/10/24 05:11:05;;;;;;;11.02;2.22;;;;;;;;;;5082929;28;20398;-86
2022/10/24 05:13:30;;;;;;;6.85;1.80;;;;;;;;;;5080227;28;20111;-86
2022/10/24 05:15:56;;;;;;;7.18;2.20;;;;;;;;;;5079400;28;20043;-86
2022/10/24 05:18:21;;;;;;;5.10;1.88;;;;;;;;;;5080026;28;20046;-86
2022/10/24 05:20:47;;;;;;;13.82;2.20;;;;;;;;;;5078975;28;20082;-85
2022/10/24 05:23:12;;;;;;;11.48;2.05;;;;;;;;;;5079232;28;20404;-86
2022/10/24 05:25:37;;;;;;;11.23;2.20;;;;;;;;;;5078211;28;20037;-86
2022/10/24 05:28:03;;;;;;;7.75;2.03;;;;;;;;;;5078361;28;20056;-86
2022/10/24 05:30:29;;;;;;;6.68;1.92;;;;;;;;;;5078577;28;20028;-86
2022/10/24 05:32:54;;;;;;;6.95;1.83;;;;;;;;;;5078649;28;20032;-86
2022/10/24 05:35:20;;;;;;;10.38;2.10;;;;;;;;;;5077761;28;20032;-86
2022/10/24 05:37:45;;;;;;;10.40;2.17;;;;;;;;;;5078773;28;20086;-85
2022/10/24 05:40:11;;;;;;;7.57;2.00;;;;;;;;;;5078310;28;20082;-86
2022/10/24 05:42:37;;;;;;;13.38;2.33;;;;;;;;;;5078600;28;20110;-86
2022/10/24 05:45:08;;;;;;;7.55;1.98;;;;;;;;;;5079457;28;20087;-86
2022/10/24 05:47:34;;;;;;;9.80;2.25;;;;;;;;;;5079143;28;20040;-86
2022/10/24 05:49:59;;;;;;;11.55;2.33;;;;;;;;;;5079644;28;20029;-87
2022/10/24 05:52:24;;;;;;;5.57;1.98;;;;;;;;;;5079181;28;20070;-88
2022/10/24 05:54:50;;;;;;;9.30;1.90;;;;;;;;;;5077067;28;20475;-88
2022/10/24 05:57:15;;;;;;;7.03;2.00;;;;;;;;;;5077411;28;20040;-87
2022/10/24 05:59:41;;;;;;;9.35;2.20;;;;;;;;;;5078689;28;20104;-86
2022/10/24 06:02:09;;;;;;;9.63;2.20;;;;;;;;;;5078104;28;20100;-86
2022/10/24 06:04:35;;;;;;;6.15;2.28;;;;;;;;;;5089465;28;20471;-87
2022/10/24 06:07:00;;;;;;;9.95;3.35;;;;;;;;;;5098209;28;20039;-86
2022/10/24 06:09:25;;;;;;;9.70;4.00;;;;;;;;;;5098247;28;20119;-86
2022/10/24 06:11:51;;;;;;;8.70;3.13;;;;;;;;;;5096850;28;20089;-87
2022/10/24 06:14:16;;;;;;;10.45;3.08;;;;;;;;;;5096389;28;20032;-87
2022/10/24 06:16:42;;;;;;;10.40;3.45;;;;;;;;;;5097467;28;20092;-87
2022/10/24 06:19:07;;;;;;;9.60;2.30;;;;;;;;;;5098398;28;20032;-86
2022/10/24 06:21:33;;;;;;;8.70;2.47;;;;;;;;;;5102624;28;20404;-88
2022/10/24 06:23:58;;;;;;;10.40;2.80;;;;;;;;;;5098650;28;20393;-88
2022/10/24 06:26:24;;;;;;;10.90;2.78;;;;;;;;;;5099980;28;20040;-87
2022/10/24 06:28:50;;;;;;;11.00;2.65;;;;;;;;;;5099580;28;20036;-87
2022/10/24 06:31:17;;;;;;;9.07;2.83;;;;;;;;;;5100949;28;20050;-87
2022/10/24 06:33:42;;;;;;;8.13;3.00;;;;;;;;;;5100774;28;20036;-87
2022/10/24 06:36:09;;;;;;;6.85;3.10;;;;;;;;;;5100663;28;20081;-87
2022/10/24 06:38:35;;;;;;;11.88;2.90;;;;;;;;;;5100788;28;20028;-87
2022/10/24 06:41:07;;;;;;;6.13;2.35;;;;;;;;;;5102862;28;20046;-87
2022/10/24 06:43:32;;;;;;;9.13;2.30;;;;;;;;;;5100654;28;20377;-87
2022/10/24 06:45:58;;;;;;;8.93;2.30;;;;;;;;;;5100827;28;20039;-87
2022/10/24 06:48:23;;;;;;;6.82;2.15;;;;;;;;;;5100192;28;20040;-87
2022/10/24 06:50:49;;;;;;;7.93;2.60;;;;;;;;;;5100977;28;20047;-85
2022/10/24 06:53:14;;;;;;;9.48;2.38;;;;;;;;;;5098782;28;20032;-88
2022/10/24 06:55:40;;;;;;;7.10;2.90;;;;;;;;;;5101452;28;20442;-87
2022/10/24 06:58:06;;;;;;;9.25;2.53;;;;;;;;;;5101780;28;20046;-88
2022/10/24 07:00:34;;;;;;;6.82;2.60;;;;;;;;;;5102263;28;20031;-87
2022/10/24 07:03:00;;;;;;;8.18;3.58;;;;;;;;;;5100546;28;20036;-88
2022/10/24 07:05:25;;;;;;;11.68;3.38;;;;;;;;;;5099196;28;20039;-87
2022/10/24 07:07:51;;;;;;;8.40;2.30;;;;;;;;;;5098866;28;20040;-87
2022/10/24 07:10:16;;;;;;;8.20;2.72;;;;;;;;;;5100324;28;20047;-87
2022/10/24 07:12:42;;;;;;;10.68;2.92;;;;;;;;;;5100993;28;20087;-86
2022/10/24 07:15:08;;;;;;;11.05;3.13;;;;;;;;;;5100787;28;20052;-87
2022/10/24 07:17:43;;;;;;;10.68;2.70;;;;;;;;;;5101110;28;20024;-87
2022/10/24 07:20:10;;;;;;;9.48;2.50;;;;;;;;;;5099950;28;20492;-86
2022/10/24 07:22:36;;;;;;;8.15;2.60;;;;;;;;;;5099457;28;20381;-86
2022/10/24 07:25:03;;;;;;;7.68;1.80;;;;;;;;;;5097376;28;20089;-86
2022/10/24 07:27:28;;;;;;;10.45;2.38;;;;;;;;;;5098398;28;20064;-89
2022/10/24 07:29:54;;;;;;;9.85;2.45;;;;;;;;;;5098814;28;20039;-87
2022/10/24 07:32:20;;;;;;;6.80;2.10;;;;;;;;;;5099986;28;20036;-87
2022/10/24 07:34:48;;;;;;;11.90;2.63;;;;;;;;;;5099377;28;20055;-87
2022/10/24 07:37:17;;;;;;;9.18;2.30;;;;;;;;;;5099675;28;20116;-86
2022/10/24 07:39:45;;;;;;;7.25;2.60;;;;;;;;;;5098238;28;20089;-88
2022/10/24 07:42:14;;;;;;;6.57;1.80;;;;;;;;;;5098990;28;20053;-88
2022/10/24 07:44:40;;;;;;;6.18;1.95;;;;;;;;;;5096957;28;20028;-89
2022/10/24 07:47:07;;;;;;;12.35;2.10;;;;;;;;;;5098125;28;20087;-88
2022/10/24 07:49:33;;;;;;;9.98;2.72;;;;;;;;;;5096903;28;20046;-88
2022/10/24 07:51:59;;;;;;;6.10;1.80;;;;;;;;;;5095472;28;20047;-87
2022/10/24 07:54:25;;;;;;;7.38;1.92;;;;;;;;;;5097740;28;20031;-88
2022/10/24 07:56:51;;;;;;;7.53;2.38;;;;;;;;;;5097309;28;20489;-87
2022/10/24 07:59:16;;;;;;;10.48;2.10;;;;;;;;;;5071610;28;20489;-88
2022/10/24 08:01:42;;;;;;;10.63;2.38;;;;;;;;;;5089257;28;20028;-88
2022/10/24 08:04:09;;;;;;;7.20;2.13;;;;;;;;;;5079554;28;20032;-88
2022/10/24 08:06:34;;;;;;;7.20;2.20;;;;;;;;;;5099492;28;20048;-88
2022/10/24 08:09:00;;;;;;;8.45;2.10;;;;;;;;;;5096537;28;20458;-89
2022/10/24 08:11:27;;;;;;;10.85;2.22;;;;;;;;;;5098156;28;20412;-88
2022/10/24 08:13:53;;;;;;;5.97;1.98;;;;;;;;;;5097991;28;20459;-89
2022/10/24 08:16:22;;;;;;;9.60;1.85;;;;;;;;;;5096581;28;20039;-88
2022/10/24 08:18:48;;;;;;;7.85;2.10;;;;;;;;;;5096726;28;20476;-88
2022/10/24 08:21:16;;;;;;;7.30;2.03;;;;;;;;;;5097857;28;20048;-88
2022/10/24 08:23:44;;;;;;;4.80;1.80;;;;;;;;;;5096848;28;20123;-88
2022/10/24 08:26:16;;;;;;;8.68;2.00;;;;;;;;;;5097762;28;20401;-88
2022/10/24 08:28:42;;;;;;;6.93;1.85;;;;;;;;;;5097411;28;20030;-88
2022/10/24 08:31:11;;;;;;;7.65;2.33;;;;;;;;;;5096667;28;20119;-88
2022/10/24 08:33:37;;;;;;;8.10;1.88;;;;;;;;;;5096561;28;20032;-90
2022/10/24 08:36:10;;;;;;;6.47;1.83;;;;;;;;;;5096996;28;20558;-88
2022/10/24 08:38:37;;;;;;;6.05;1.65;;;;;;;;;;5096830;28;20508;-89
2022/10/24 08:41:02;;;;;;;8.75;1.92;;;;;;;;;;5096316;28;20032;-88
2022/10/24 08:43:28;;;;;;;7.55;1.88;;;;;;;;;;5097225;28;20035;-88
2022/10/24 08:46:05;;;;;;;7.53;1.73;;;;;;;;;;5097738;28;20084;-87
2022/10/24 08:48:48;;;;;;;7.85;1.60;;;;;;;;;;5097783;28;20089;-88
2022/10/24 08:51:22;;;;;;;5.97;1.70;;;;;;;;;;5096572;28;20040;-89
2022/10/24 08:53:50;;;;;;;7.55;2.03;;;;;;;;;;5095739;28;20036;-89
2022/10/24 08:56:16;;;;;;;7.60;1.80;;;;;;;;;;5098559;28;20045;-88
2022/10/24 08:58:43;;;;;;;6.47;1.70;;;;;;;;;;5097690;28;20036;-88
2022/10/24 09:01:26;;;;;;;6.60;1.40;;;;;;;;;;5099814;28;20028;-88
2022/10/24 09:04:00;;;;;;;3.55;1.33;;;;;;;;;;5094474;28;20036;-90
2022/10/24 09:06:33;;;;;;;6.22;1.35;;;;;;;;;;5093505;28;20036;-91
2022/10/24 09:09:34;;;;;;;7.25;1.40;;;;;;;;;;5091801;28;20065;-91
2022/10/24 09:12:07;;;;;;;5.00;1.50;;;;;;;;;;5092648;28;20437;-91
2022/10/24 09:14:37;;;;;;;5.23;1.53;;;;;;;;;;5074200;28;20492;-91
2022/10/24 09:17:17;;;;;;;5.88;1.45;;;;;;;;;;5092968;28;20031;-90
2022/10/24 09:19:54;;;;;;;6.38;1.60;;;;;;;;;;5092770;28;20032;-90
2022/10/24 09:22:27;;;;;;;17.75;5.63;;;;;;;;;;5092856;28;20092;-89
2022/10/24 09:24:57;;;;;;;6.78;1.80;;;;;;;;;;5090978;28;20047;-89
2022/10/24 09:27:38;;;;;;;7.82;1.65;;;;;;;;;;5074274;28;20036;-90
2022/10/24 09:30:05;;;;;;;5.07;1.90;;;;;;;;;;5091069;28;20040;-90
2022/10/24 09:32:35;;;;;;;2.45;1.30;;;;;;;;;;5092056;28;20107;-90
2022/10/24 09:35:08;;;;;;;5.25;1.75;;;;;;;;;;5090651;28;20020;-89
2022/10/24 09:37:41;;;;;;;;;;;;;;;;;;5091103;28;20028;-89
2022/10/24 09:40:23;;;;;;;8.10;1.90;;;;;;;;;;5074022;28;19912;-90
2022/10/24 09:42:54;;;;;;;7.40;1.85;;;;;;;;;;5090818;28;20028;-90
2022/10/24 09:45:26;;;;;;;6.47;1.70;;;;;;;;;;5090668;28;20024;-90
2022/10/24 09:47:59;;;;;;;5.18;1.63;;;;;;;;;;5090817;28;20032;-90
2022/10/24 09:50:25;;;;;;;6.55;2.20;;;;;;;;;;5090814;28;20064;-90
2022/10/24 09:52:55;;;;;;;5.95;1.50;;;;;;;;;;5091018;28;20035;-90
2022/10/24 09:55:28;;;;;;;4.75;1.50;;;;;;;;;;5094793;28;20393;-90
2022/10/24 09:58:02;;;;;;;5.80;1.80;;;;;;;;;;5094815;28;20127;-90
2022/10/24 10:00:37;;;;;;;7.75;2.28;;;;;;;;;;5096097;28;20043;-89
2022/10/24 10:03:19;;;;;;;9.48;2.40;;;;;;;;;;5095007;28;20032;-89
2022/10/24 10:05:59;;;;;;;10.98;2.10;;;;;;;;;;5095871;28;20039;-90
2022/10/24 10:08:32;;;;;;;5.65;1.73;;;;;;;;;;5094861;28;20032;-89
2022/10/24 10:11:34;;;;;;;5.40;1.55;;;;;;;;;;5095850;28;20471;-90
2022/10/24 10:22:38;;;;;;;8.05;1.75;;;;;;;;;;5076026;28;20043;-87
2022/10/24 10:35:16;;;;;;;5.22;1.42;;;;;;;;;;5266314;22;20045;-87
2022/10/24 10:37:48;;;;;;;5.93;1.33;;;;;;;;;;5055609;28;20114;-86
2022/10/24 10:40:41;;;;;;;5.40;1.38;;;;;;;;;;5056433;28;20033;-85
2022/10/24 10:43:41;;;;;;;6.10;1.50;;;;;;;;;;5038204;28;20024;-89
2022/10/24 10:46:28;;;;;;;3.88;1.50;;;;;;;;;;5056136;28;20033;-89
2022/10/24 10:49:20;;;;;;;8.25;2.38;;;;;;;;;;5035169;28;20037;-88
2022/10/24 10:51:53;;;;;;;10.50;2.58;;;;;;;;;;5054864;28;20029;-88
2022/10/24 10:54:43;;;;;;;4.45;1.48;;;;;;;;;;5053294;28;20163;-88
2022/10/24 10:57:18;;;;;;;7.47;1.67;;;;;;;;;;5037297;28;20555;-88
2022/10/24 10:59:59;;;;;;;7.93;2.55;;;;;;;;;;5055339;28;20039;-89
2022/10/24 11:02:36;;;;;;;8.02;1.90;;;;;;;;;;5037832;28;20043;-89
2022/10/24 11:05:43;;;;;;;4.47;1.80;;;;;;;;;;5054381;28;20020;-88
2022/10/24 11:08:23;;;;;;;4.20;1.52;;;;;;;;;;5020944;28;20119;-88
2022/10/24 11:10:54;;;;;;;5.65;2.00;;;;;;;;;;5037635;28;20041;-88
2022/10/24 11:13:31;;;;;;;5.85;2.20;;;;;;;;;;5021148;28;20120;-88
2022/10/24 11:16:10;;;;;;;5.20;1.42;;;;;;;;;;5055465;28;20392;-89
2022/10/24 11:18:42;;;;;;;5.97;1.42;;;;;;;;;;5020325;28;20128;-89
2022/10/24 11:21:22;;;;;;;8.73;1.50;;;;;;;;;;5038689;28;20040;-88
2022/10/24 11:23:56;;;;;;;5.80;1.90;;;;;;;;;;5020302;28;20112;-89
2022/10/24 11:26:39;;;;;;;7.15;2.33;;;;;;;;;;5054669;28;20041;-90
2022/10/24 11:29:19;;;;;;;9.30;2.92;;;;;;;;;;5036206;28;20028;-90
2022/10/24 11:32:13;;;;;;;90.53;25.50;;;;;;;;;;5035670;28;20552;-89
2022/10/24 11:34:53;;;;;;;101.80;26.75;;;;;;;;;;5036084;28;20056;-89
2022/10/24 11:37:35;;;;;;;47.85;15.38;;;;;;;;;;5030807;28;20429;-89
2022/10/24 11:40:11;;;;;;;10.68;3.92;;;;;;;;;;5036428;28;20033;-89
2022/10/24 11:42:58;;;;;;;15.93;3.40;;;;;;;;;;5038326;28;20036;-89
2022/10/24 11:45:31;;;;;;;6.88;1.90;;;;;;;;;;5019909;28;20049;-89
2022/10/24 11:48:15;;;;;;;;;;;;;;;;;;5037402;28;20041;-88
2022/10/24 11:50:54;;;;;;;4.03;1.60;;;;;;;;;;5055422;28;19917;-89
2022/10/24 11:53:33;;;;;;;5.68;1.60;;;;;;;;;;5039586;28;20037;-88
2022/10/24 11:56:17;;;;;;;5.97;1.50;;;;;;;;;;5059015;28;20043;-89
2022/10/24 11:58:58;;;;;;;6.47;1.65;;;;;;;;;;5040911;28;20120;-87
2022/10/24 12:01:29;;;;;;;5.57;1.77;;;;;;;;;;5059595;28;20057;-87
2022/10/24 12:04:25;;;;;;;4.65;1.65;;;;;;;;;;5059573;28;20182;-89
2022/10/24 12:07:23;;;;;;;7.10;2.47;;;;;;;;;;5041890;28;20040;-87
2022/10/24 12:10:16;;;;;;;5.30;1.70;;;;;;;;;;5025114;28;20155;-88
2022/10/24 12:13:12;;;;;;;2.97;1.27;;;;;;;;;;5043036;28;20082;-88
2022/10/24 12:16:06;;;;;;;6.90;1.40;;;;;;;;;;5024686;28;20052;-88
2022/10/24 12:18:36;;;;;;;5.60;1.70;;;;;;;;;;5042666;28;20041;-89
2022/10/24 12:21:07;;;;;;;6.10;1.67;;;;;;;;;;5025812;28;20045;-88
2022/10/24 12:23:37;;;;;;;4.63;1.50;;;;;;;;;;5026380;28;20041;-88
2022/10/24 12:26:17;;;;;;;5.50;1.60;;;;;;;;;;5042544;28;20052;-88
2022/10/24 12:28:53;;;;;;;7.65;1.67;;;;;;;;;;5041993;28;20048;-88
2022/10/24 12:31:22;;;;;;;4.53;1.73;;;;;;;;;;5059607;28;20028;-87
2022/10/24 12:34:21;;;;;;;6.35;1.38;;;;;;;;;;5041644;28;20037;-89
2022/10/24 12:37:10;;;;;;;5.78;1.48;;;;;;;;;;5059989;28;20166;-88
2022/10/24 12:39:49;;;;;;;5.22;1.83;;;;;;;;;;5059819;28;20446;-88
2022/10/24 12:42:35;;;;;;;6.72;1.60;;;;;;;;;;5042760;28;20037;-89
2022/10/24 12:45:22;;;;;;;3.92;1.20;;;;;;;;;;5041718;28;20043;-88
2022/10/24 12:48:25;;;;;;;4.47;1.05;;;;;;;;;;5024952;28;20040;-87
2022/10/24 12:51:02;;;;;;;6.28;1.30;;;;;;;;;;5059763;28;20029;-87
2022/10/24 12:53:33;;;;;;;3.25;1.40;;;;;;;;;;5059522;28;20231;-88
2022/10/24 12:55:59;;;;;;;3.28;1.20;;;;;;;;;;5041875;28;20037;-88
2022/10/24 12:58:30;;;;;;;7.22;1.50;;;;;;;;;;5025507;28;20036;-88
2022/10/24 13:01:05;;;;;;;6.03;1.48;;;;;;;;;;5042457;28;20155;-88
2022/10/24 13:04:04;;;;;;;6.03;1.92;;;;;;;;;;5041812;28;20490;-87
2022/10/24 13:07:01;;;;;;;7.93;2.10;;;;;;;;;;5042202;28;20029;-88
2022/10/24 13:09:48;;;;;;;5.47;1.60;;;;;;;;;;5059347;28;20550;-87
2022/10/24 13:12:55;;;;;;;4.43;1.58;;;;;;;;;;5041528;28;20044;-89
2022/10/24 13:15:27;;;;;;;4.25;1.02;;;;;;;;;;5041102;28;20072;-88
2022/10/24 13:17:58;;;;;;;8.02;2.20;;;;;;;;;;5059631;28;20033;-88
2022/10/24 13:20:28;;;;;;;3.63;1.50;;;;;;;;;;5042183;28;20033;-87
2022/10/24 13:23:02;;;;;;;5.22;1.50;;;;;;;;;;5059989;28;20040;-88
2022/10/24 13:25:39;;;;;;;2.75;1.05;;;;;;;;;;5025318;28;20123;-88
2022/10/24 13:28:29;;;;;;;3.67;1.60;;;;;;;;;;5059532;28;20037;-88
2022/10/24 13:30:57;;;;;;;5.78;1.70;;;;;;;;;;5041680;28;20033;-88
2022/10/24 13:33:32;;;;;;;5.97;1.80;;;;;;;;;;5042615;28;20393;-88
2022/10/24 13:36:15;;;;;;;4.68;1.50;;;;;;;;;;5059712;28;20055;-88
2022/10/24 13:38:51;;;;;;;4.20;1.60;;;;;;;;;;5059720;28;20413;-88
2022/10/24 13:41:45;;;;;;;8.00;2.00;;;;;;;;;;5059466;28;20037;-87
2022/10/24 13:44:11;;;;;;;7.00;3.08;;;;;;;;;;5039574;28;20045;-83
2022/10/24 13:47:29;;;;;;;7.80;3.22;;;;;;;;;;5052459;28;20478;-86
2022/10/24 13:50:00;;;;;;;3.80;1.63;;;;;;;;;;5024820;28;20102;-86
2022/10/24 13:52:33;;;;;;;2.85;1.10;;;;;;;;;;5052622;28;20446;-86
2022/10/24 13:55:19;;;;;;;4.90;1.20;;;;;;;;;;5052228;28;20462;-86
2022/10/24 13:58:04;;;;;;;3.65;1.30;;;;;;;;;;5052186;28;20406;-86
2022/10/24 14:00:36;;;;;;;3.85;1.10;;;;;;;;;;5051981;28;20512;-87
2022/10/24 14:03:04;;;;;;;3.30;1.13;;;;;;;;;;5052267;28;20041;-86
2022/10/24 14:05:45;;;;;;;3.53;1.10;;;;;;;;;;5034512;28;20632;-85
2022/10/24 14:08:21;;;;;;;2.85;1.00;;;;;;;;;;5052244;28;20265;-85
2022/10/24 14:10:46;;;;;;;2.58;1.00;;;;;;;;;;5052258;28;20043;-86
2022/10/24 14:13:17;;;;;;;3.00;0.90;;;;;;;;;;5017493;28;20459;-86
2022/10/24 14:15:53;;;;;;;4.40;1.02;;;;;;;;;;5034267;28;20090;-87
2022/10/24 14:18:20;;;;;;;3.33;1.50;;;;;;;;;;5052262;28;20485;-87
2022/10/24 14:20:57;;;;;;;5.80;1.80;;;;;;;;;;5035812;28;20497;-87
2022/10/24 14:23:33;;;;;;;3.78;1.70;;;;;;;;;;5021858;28;20033;-87
2022/10/24 14:26:01;;;;;;;6.43;1.60;;;;;;;;;;5053284;28;20025;-87
2022/10/24 14:28:33;;;;;;;5.75;2.40;;;;;;;;;;5052476;28;20036;-87
2022/10/24 14:31:03;;;;;;;2.60;1.33;;;;;;;;;;5052142;28;20040;-86
2022/10/24 14:33:31;;;;;;;4.82;1.92;;;;;;;;;;5034207;28;20067;-88
2022/10/24 14:35:59;;;;;;;4.07;2.08;;;;;;;;;;5051238;28;20025;-84
2022/10/24 14:38:26;;;;;;;3.60;1.70;;;;;;;;;;5051417;28;20095;-88
2022/10/24 14:40:52;;;;;;;7.22;3.70;;;;;;;;;;5051557;28;20039;-86
2022/10/24 14:43:29;;;;;;;17.48;6.72;;;;;;;;;;5053814;28;20668;-86
2022/10/24 14:46:15;;;;;;;8.95;3.30;;;;;;;;;;5036065;28;20033;-87
2022/10/24 14:49:00;;;;;;;9.15;3.20;;;;;;;;;;5038370;28;20582;-87
2022/10/24 14:51:41;;;;;;;7.03;3.90;;;;;;;;;;5038641;28;20037;-88
2022/10/24 14:55:01;;;;;;;9.50;3.90;;;;;;;;;;5037930;28;20040;-87
2022/10/24 14:57:27;;;;;;;9.82;3.72;;;;;;;;;;4977801;28;20048;-86
2022/10/24 14:59:58;;;;;;;5.82;3.83;;;;;;;;;;4994338;28;20117;-86
2022/10/24 15:02:27;;;;;;;7.20;3.53;;;;;;;;;;5030961;28;20052;-86
2022/10/24 15:05:15;;;;;;;8.00;3.33;;;;;;;;;;5054929;28;20474;-86
2022/10/24 15:07:41;;;;;;;7.70;4.10;;;;;;;;;;5053396;28;20151;-86
2022/10/24 15:10:10;;;;;;;11.57;3.53;;;;;;;;;;5054721;28;20103;-86
2022/10/24 15:12:41;;;;;;;9.40;3.55;;;;;;;;;;5054756;28;20041;-87
2022/10/24 15:15:21;;;;;;;3.97;2.45;;;;;;;;;;5054847;28;20033;-87
2022/10/24 15:17:48;;;;;;;5.10;2.45;;;;;;;;;;5055848;28;20037;-86
2022/10/24 15:20:21;;;;;;;7.22;3.05;;;;;;;;;;5054862;28;20075;-87
2022/10/24 15:22:53;;;;;;;5.75;2.90;;;;;;;;;;5054329;28;20425;-86
2022/10/24 15:25:22;;;;;;;6.33;1.90;;;;;;;;;;5036979;28;20059;-86
2022/10/24 15:27:48;;;;;;;3.58;1.85;;;;;;;;;;5055170;28;20280;-86